Terminal Aerodrome Forecast
Issued by NWS Sterling, VA

Home | Current Version | Previous Version | Text Only | Print | Product List | Glossary On
Versions: 1 2 3 4 5 6 7 8 9 10 11 12 13 14 15
000
FTUS41 KLWX 241728
TAFCHO
TAF
KCHO 241728Z 2418/2518 18012KT P6SM FEW040
     FM250400 18005KT P6SM BKN030
     FM251000 17005KT 6SM BR BKN008
     FM251300 18009KT P6SM BKN015
     FM251500 18012KT 3SM -SHRA BKN015
     FM251600 19012G19KT 3SM -SHRA BKN030=

USA.gov is the U.S. government's official web portal to all federal, state and local government web resources and services.